createdAt,value
2018-07-07T00:00:59.877Z,22.88
2018-07-07T00:02:00.660Z,22.87
2018-07-07T00:03:01.440Z,22.86
2018-07-07T00:04:04.423Z,22.86
2018-07-07T00:05:01.993Z,22.85
2018-07-07T00:06:03.788Z,22.85
2018-07-07T00:07:04.567Z,22.84
2018-07-07T00:08:05.335Z,22.83
2018-07-07T00:09:06.124Z,22.82
2018-07-07T00:10:06.882Z,22.81
2018-07-07T00:11:07.698Z,22.80
2018-07-07T00:12:08.456Z,22.80
2018-07-07T00:13:09.225Z,22.79
2018-07-07T00:14:09.998Z,22.78
2018-07-07T00:15:10.771Z,22.77
2018-07-07T00:16:11.572Z,22.77
2018-07-07T00:17:12.343Z,22.76
2018-07-07T00:18:13.126Z,22.75
2018-07-07T00:19:13.897Z,22.75
2018-07-07T00:20:14.672Z,22.74
2018-07-07T00:21:15.471Z,22.73
2018-07-07T00:22:16.242Z,22.71
2018-07-07T00:23:17.023Z,22.71
2018-07-07T00:24:17.795Z,22.70
2018-07-07T00:25:18.567Z,22.69
2018-07-07T00:26:19.363Z,22.67
2018-07-07T00:27:20.148Z,22.66
2018-07-07T00:28:20.922Z,22.65
2018-07-07T00:29:21.682Z,22.63
2018-07-07T00:30:22.468Z,22.62
2018-07-07T00:31:23.253Z,22.61
2018-07-07T00:32:24.030Z,22.60
2018-07-07T00:33:24.800Z,22.59
2018-07-07T00:34:25.577Z,22.58
2018-07-07T00:35:26.351Z,22.57
2018-07-07T00:36:27.149Z,22.56
2018-07-07T00:37:27.928Z,22.55
2018-07-07T00:38:28.696Z,22.54
2018-07-07T00:39:29.475Z,22.53
2018-07-07T00:40:30.247Z,22.53
2018-07-07T00:41:31.048Z,22.52
2018-07-07T00:42:31.828Z,22.51
2018-07-07T00:43:32.597Z,22.50
2018-07-07T00:44:33.377Z,22.50
2018-07-07T00:45:34.150Z,22.48
2018-07-07T00:46:34.949Z,22.47
2018-07-07T00:47:35.725Z,22.46
2018-07-07T00:48:36.501Z,22.44
2018-07-07T00:49:37.269Z,22.43
2018-07-07T00:50:38.053Z,22.42
2018-07-07T00:51:38.865Z,22.41
2018-07-07T00:52:40.090Z,22.40
2018-07-07T01:04:07.395Z,22.21
2018-07-07T01:05:07.094Z,22.19
2018-07-07T01:06:08.874Z,22.19
2018-07-07T01:07:09.644Z,22.19
2018-07-07T01:08:10.444Z,22.19
2018-07-07T01:09:11.219Z,22.19
2018-07-07T01:10:11.993Z,22.19
2018-07-07T01:11:12.781Z,22.19
2018-07-07T01:12:13.525Z,22.19
2018-07-07T01:13:14.320Z,22.19
2018-07-07T01:14:17.855Z,22.19
2018-07-07T01:15:15.615Z,22.18
2018-07-07T01:16:16.389Z,22.18
2018-07-07T01:17:17.164Z,22.18
2018-07-07T01:18:17.983Z,22.17
2018-07-07T01:19:18.747Z,22.16
2018-07-07T01:20:19.529Z,22.15
2018-07-07T01:21:20.290Z,22.15
2018-07-07T01:22:21.067Z,22.14
2018-07-07T01:23:21.868Z,22.13
2018-07-07T01:24:23.645Z,22.12
2018-07-07T01:25:23.417Z,22.11
2018-07-07T01:26:24.189Z,22.09
2018-07-07T01:27:24.965Z,22.07
2018-07-07T01:28:25.770Z,22.06
2018-07-07T01:29:26.546Z,22.04
2018-07-07T01:30:27.322Z,22.03
2018-07-07T01:31:28.089Z,22.02
2018-07-07T01:32:28.864Z,22.01
2018-07-07T01:33:29.663Z,22.00
2018-07-07T01:34:31.431Z,21.99
2018-07-07T01:35:31.211Z,21.98
2018-07-07T01:36:31.975Z,21.97
2018-07-07T01:37:32.747Z,21.96
2018-07-07T01:38:33.572Z,21.96
2018-07-07T01:39:34.319Z,21.95
2018-07-07T01:40:35.096Z,21.94
2018-07-07T01:41:35.868Z,21.94
2018-07-07T01:42:36.642Z,21.93
2018-07-07T01:43:37.438Z,21.92
2018-07-07T01:44:38.214Z,21.91
2018-07-07T01:45:38.985Z,21.90
2018-07-07T01:46:39.760Z,21.88
2018-07-07T01:47:40.533Z,21.87
2018-07-07T01:48:41.361Z,21.86
2018-07-07T01:49:41.099Z,21.85
2018-07-07T01:50:42.873Z,21.84
2018-07-07T01:51:43.647Z,21.83
2018-07-07T01:52:44.422Z,21.82
2018-07-07T01:53:45.221Z,21.81
2018-07-07T01:54:45.996Z,21.80
2018-07-07T01:55:46.770Z,21.80
2018-07-07T01:56:47.542Z,21.79
2018-07-07T01:57:48.318Z,21.79
2018-07-07T01:58:49.114Z,21.78
2018-07-07T01:59:49.887Z,21.78
2018-07-07T02:00:50.658Z,21.77
2018-07-07T02:01:51.436Z,21.76
2018-07-07T02:02:52.206Z,21.76
2018-07-07T02:03:53.009Z,21.75
2018-07-07T02:04:53.775Z,21.74
2018-07-07T02:05:54.549Z,21.73
2018-07-07T02:06:55.319Z,21.72
2018-07-07T02:07:56.091Z,21.71
2018-07-07T02:08:56.891Z,21.71
2018-07-07T02:09:57.666Z,21.70
2018-07-07T02:10:58.446Z,21.69
2018-07-07T02:11:59.223Z,21.69
2018-07-07T02:12:59.991Z,21.68
2018-07-07T02:14:00.800Z,21.68
2018-07-07T02:15:01.576Z,21.67
2018-07-07T02:16:02.345Z,21.67
2018-07-07T02:17:03.118Z,21.66
2018-07-07T02:18:03.896Z,21.65
2018-07-07T02:19:04.691Z,21.65
2018-07-07T02:20:05.474Z,21.65
2018-07-07T02:21:06.251Z,21.65
2018-07-07T02:22:07.022Z,21.64
2018-07-07T02:23:07.791Z,21.62
2018-07-07T02:24:08.597Z,21.61
2018-07-07T02:25:09.371Z,21.59
2018-07-07T02:26:10.147Z,21.58
2018-07-07T02:27:10.920Z,21.57
2018-07-07T02:28:11.694Z,21.56
2018-07-07T02:29:12.494Z,21.54
2018-07-07T02:30:13.267Z,21.53
2018-07-07T02:31:14.066Z,21.52
2018-07-07T02:32:14.831Z,21.51
2018-07-07T02:33:15.599Z,21.49
2018-07-07T02:34:16.400Z,21.48
2018-07-07T02:35:17.174Z,21.48
2018-07-07T02:36:17.947Z,21.47
2018-07-07T02:37:18.718Z,21.46
2018-07-07T02:38:19.501Z,21.44
2018-07-07T02:39:20.292Z,21.42
2018-07-07T02:40:21.071Z,21.41
2018-07-07T02:41:21.846Z,21.40
2018-07-07T02:42:22.624Z,21.39
2018-07-07T02:43:23.399Z,21.38
2018-07-07T02:44:24.197Z,21.37
2018-07-07T02:45:24.978Z,21.36
2018-07-07T02:46:25.841Z,21.35
2018-07-07T02:47:25.529Z,21.35
2018-07-07T02:48:27.300Z,21.33
2018-07-07T02:49:28.100Z,21.32
2018-07-07T02:50:28.874Z,21.30
2018-07-07T02:51:29.645Z,21.29
2018-07-07T02:52:30.428Z,21.28
2018-07-07T02:53:31.609Z,21.26
2018-07-07T02:56:27.991Z,21.07
2018-07-07T02:57:28.755Z,21.04
2018-07-07T02:58:29.517Z,21.04
2018-07-07T02:59:30.295Z,21.04
2018-07-07T03:00:31.093Z,21.03
2018-07-07T03:01:31.860Z,21.03
2018-07-07T03:02:32.636Z,21.02
2018-07-07T03:03:33.406Z,21.02
2018-07-07T03:04:34.183Z,21.01
2018-07-07T03:05:34.989Z,21.01
2018-07-07T03:06:36.774Z,21.01
2018-07-07T03:07:36.519Z,21.01
2018-07-07T03:08:37.286Z,21.02
2018-07-07T03:09:38.070Z,21.02
2018-07-07T03:10:38.865Z,21.02
2018-07-07T03:11:39.644Z,21.03
2018-07-07T03:12:40.414Z,21.03
2018-07-07T03:13:41.183Z,21.04
2018-07-07T03:14:41.956Z,21.04
2018-07-07T03:15:42.762Z,21.04
2018-07-07T03:16:43.523Z,21.04
2018-07-07T03:17:44.296Z,21.05
2018-07-07T03:18:45.070Z,21.05
2018-07-07T03:19:45.852Z,21.05
2018-07-07T03:20:46.640Z,21.05
2018-07-07T03:21:47.433Z,21.05
2018-07-07T03:22:48.189Z,21.05
2018-07-07T03:23:48.961Z,21.05
2018-07-07T03:24:49.729Z,21.05
2018-07-07T03:25:50.523Z,21.05
2018-07-07T03:26:51.295Z,21.05
2018-07-07T03:27:52.076Z,21.05
2018-07-07T03:28:52.838Z,21.04
2018-07-07T03:29:53.613Z,21.04
2018-07-07T03:30:54.441Z,21.03
2018-07-07T03:31:55.202Z,21.03
2018-07-07T03:32:55.969Z,21.03
2018-07-07T03:33:56.743Z,21.03
2018-07-07T03:34:57.515Z,21.03
2018-07-07T03:35:58.316Z,21.02
2018-07-07T03:36:59.090Z,21.02
2018-07-07T03:37:59.918Z,21.01
2018-07-07T03:38:59.639Z,21.01
2018-07-07T03:40:01.416Z,21.02
2018-07-07T03:41:02.220Z,21.02
2018-07-07T03:42:02.987Z,21.02
2018-07-07T03:43:03.767Z,21.03
2018-07-07T03:44:04.534Z,21.02
2018-07-07T03:45:05.309Z,21.03
2018-07-07T03:46:06.115Z,21.03
2018-07-07T03:47:06.879Z,21.03
2018-07-07T03:48:07.644Z,21.03
2018-07-07T03:49:08.418Z,21.03
2018-07-07T03:50:09.200Z,21.03
2018-07-07T03:51:09.991Z,21.03
2018-07-07T03:52:10.763Z,21.03
2018-07-07T03:53:11.541Z,21.03
2018-07-07T03:54:12.325Z,21.03
2018-07-07T03:55:13.090Z,21.03
2018-07-07T03:56:13.890Z,21.02
2018-07-07T03:57:14.665Z,21.02
2018-07-07T03:58:15.438Z,21.01
2018-07-07T03:59:16.213Z,21.01
2018-07-07T04:00:16.987Z,21.01
2018-07-07T04:01:17.798Z,21.00
2018-07-07T04:02:18.573Z,21.00
2018-07-07T04:03:19.333Z,21.00
2018-07-07T04:04:20.098Z,21.00
2018-07-07T04:05:20.874Z,21.00
2018-07-07T04:06:21.677Z,21.00
2018-07-07T04:07:22.524Z,21.00
2018-07-07T04:08:22.217Z,20.99
2018-07-07T04:09:23.986Z,20.99
2018-07-07T04:10:24.768Z,20.98
2018-07-07T04:11:25.565Z,20.97
2018-07-07T04:12:26.342Z,20.96
2018-07-07T04:13:27.113Z,20.95
2018-07-07T04:14:27.884Z,20.94
2018-07-07T04:15:28.656Z,20.93
2018-07-07T04:16:29.457Z,20.91
2018-07-07T04:17:30.231Z,20.91
2018-07-07T04:18:31.014Z,20.90
2018-07-07T04:19:31.773Z,20.90
2018-07-07T04:20:32.541Z,20.90
2018-07-07T04:21:33.364Z,20.91
2018-07-07T04:22:34.115Z,20.91
2018-07-07T04:23:34.897Z,20.91
2018-07-07T04:24:35.666Z,20.91
2018-07-07T04:25:36.443Z,20.91
2018-07-07T04:26:37.246Z,20.91
2018-07-07T04:27:38.015Z,20.90
2018-07-07T04:28:38.805Z,20.90
2018-07-07T04:29:39.569Z,20.91
2018-07-07T04:30:40.361Z,20.91
2018-07-07T04:31:41.142Z,20.91
2018-07-07T04:32:41.925Z,20.91
2018-07-07T04:33:42.697Z,20.92
2018-07-07T04:34:43.469Z,20.93
2018-07-07T04:35:44.243Z,20.93
2018-07-07T04:36:45.043Z,20.93
2018-07-07T04:37:45.816Z,20.94
2018-07-07T04:38:46.593Z,20.93
2018-07-07T04:39:47.366Z,20.93
2018-07-07T04:40:48.137Z,20.93
2018-07-07T04:41:48.932Z,20.94
2018-07-07T04:42:49.708Z,20.94
2018-07-07T04:43:50.480Z,20.95
2018-07-07T04:44:52.670Z,20.96
2018-07-07T04:45:51.947Z,20.97
2018-07-07T04:46:51.123Z,20.98
2018-07-07T04:47:51.321Z,20.99
2018-07-07T04:52:47.969Z,21.21
2018-07-07T04:53:48.737Z,21.19
2018-07-07T04:54:49.508Z,21.19
2018-07-07T04:55:50.281Z,21.20
2018-07-07T04:56:51.052Z,21.19
2018-07-07T04:57:51.873Z,21.19
2018-07-07T04:58:52.627Z,21.18
2018-07-07T04:59:53.397Z,21.18
2018-07-07T05:00:54.174Z,21.19
2018-07-07T05:01:54.937Z,21.19
2018-07-07T05:02:55.744Z,21.19
2018-07-07T05:03:56.520Z,21.19
2018-07-07T05:04:57.307Z,21.19
2018-07-07T05:05:58.074Z,21.19
2018-07-07T05:06:58.847Z,21.18
2018-07-07T05:07:59.646Z,21.18
2018-07-07T05:09:00.416Z,21.18
2018-07-07T05:10:01.187Z,21.19
2018-07-07T05:11:01.966Z,21.20
2018-07-07T05:12:02.731Z,21.21
2018-07-07T05:13:03.526Z,21.22
2018-07-07T05:14:04.304Z,21.23
2018-07-07T05:15:05.074Z,21.23
2018-07-07T05:16:05.850Z,21.24
2018-07-07T05:17:06.618Z,21.25
2018-07-07T05:18:07.422Z,21.26
2018-07-07T05:19:08.193Z,21.28
2018-07-07T05:20:08.966Z,21.30
2018-07-07T05:21:09.738Z,21.31
2018-07-07T05:22:10.512Z,21.33
2018-07-07T05:23:11.305Z,21.35
2018-07-07T05:24:12.080Z,21.37
2018-07-07T05:25:12.853Z,21.39
2018-07-07T05:26:13.621Z,21.41
2018-07-07T05:27:14.394Z,21.43
2018-07-07T05:28:15.188Z,21.45
2018-07-07T05:29:15.961Z,21.47
2018-07-07T05:30:16.745Z,21.49
2018-07-07T05:31:17.508Z,21.51
2018-07-07T05:32:18.289Z,21.53
2018-07-07T05:33:19.079Z,21.55
2018-07-07T05:34:19.851Z,21.57
2018-07-07T05:35:20.627Z,21.58
2018-07-07T05:36:21.396Z,21.60
2018-07-07T05:37:22.219Z,21.61
2018-07-07T05:38:21.969Z,21.62
2018-07-07T05:39:23.746Z,21.64
2018-07-07T05:40:24.520Z,21.65
2018-07-07T05:41:25.289Z,21.66
2018-07-07T05:42:26.065Z,21.68
2018-07-07T05:43:26.871Z,21.70
2018-07-07T05:44:27.634Z,21.72
2018-07-07T05:45:28.420Z,21.74
2018-07-07T05:46:29.188Z,21.76
2018-07-07T05:47:29.966Z,21.78
2018-07-07T05:48:30.761Z,21.80
2018-07-07T05:49:31.540Z,21.82
2018-07-07T05:50:32.307Z,21.83
2018-07-07T05:51:33.079Z,21.83
2018-07-07T05:52:33.849Z,21.83
2018-07-07T05:53:34.659Z,21.84
2018-07-07T05:54:35.438Z,21.85
2018-07-07T05:55:36.205Z,21.86
2018-07-07T05:56:36.998Z,21.87
2018-07-07T05:57:37.771Z,21.87
2018-07-07T05:58:38.572Z,21.88
2018-07-07T05:59:39.350Z,21.89
2018-07-07T06:00:40.128Z,21.90
2018-07-07T06:01:40.903Z,21.91
2018-07-07T06:02:41.700Z,21.92
2018-07-07T06:03:42.472Z,21.93
2018-07-07T06:04:43.241Z,21.95
2018-07-07T06:05:44.017Z,21.96
2018-07-07T06:06:44.807Z,21.98
2018-07-07T06:07:45.588Z,22.00
2018-07-07T06:08:46.368Z,22.02
2018-07-07T06:09:47.165Z,22.04
2018-07-07T06:10:47.941Z,22.07
2018-07-07T06:11:48.693Z,22.08
2018-07-07T06:12:49.471Z,22.10
2018-07-07T06:13:50.274Z,22.12
2018-07-07T06:14:51.057Z,22.15
2018-07-07T06:15:51.820Z,22.17
2018-07-07T06:16:52.596Z,22.20
2018-07-07T06:17:53.372Z,22.22
2018-07-07T06:18:54.168Z,22.25
2018-07-07T06:19:54.936Z,22.28
2018-07-07T06:20:55.721Z,22.31
2018-07-07T06:21:56.482Z,22.34
2018-07-07T06:22:57.268Z,22.37
2018-07-07T06:23:58.056Z,22.41
2018-07-07T06:24:58.827Z,22.44
2018-07-07T06:25:59.613Z,22.47
2018-07-07T06:27:00.377Z,22.51
2018-07-07T06:28:01.151Z,22.54
2018-07-07T06:29:01.953Z,22.58
2018-07-07T06:30:02.734Z,22.61
2018-07-07T06:31:03.501Z,22.65
2018-07-07T06:32:04.299Z,22.69
2018-07-07T06:33:05.053Z,22.73
2018-07-07T06:34:05.852Z,22.76
2018-07-07T06:35:06.631Z,22.80
2018-07-07T06:36:07.414Z,22.84
2018-07-07T06:37:08.180Z,22.87
2018-07-07T06:38:08.951Z,22.91
2018-07-07T06:39:09.747Z,22.95
2018-07-07T06:40:10.520Z,22.99
2018-07-07T06:41:11.713Z,23.03
2018-07-07T06:42:11.916Z,23.07
2018-07-07T06:43:11.139Z,23.11
2018-07-07T06:44:11.362Z,23.14
2018-07-07T06:56:30.625Z,24.09
2018-07-07T06:57:31.389Z,24.08
2018-07-07T06:58:32.164Z,24.08
2018-07-07T06:59:34.012Z,24.08
2018-07-07T07:00:32.755Z,24.09
2018-07-07T07:01:34.527Z,24.10
2018-07-07T07:02:35.300Z,24.11
2018-07-07T07:03:36.072Z,24.13
2018-07-07T07:04:36.880Z,24.15
2018-07-07T07:05:37.642Z,24.16
2018-07-07T07:06:38.639Z,24.17
2018-07-07T07:07:38.354Z,24.19
2018-07-07T07:08:40.126Z,24.21
2018-07-07T07:09:40.935Z,24.23
2018-07-07T07:10:41.704Z,24.26
2018-07-07T07:11:42.491Z,24.28
2018-07-07T07:12:43.262Z,24.31
2018-07-07T07:13:46.192Z,24.34
2018-07-07T07:14:43.831Z,24.36
2018-07-07T07:15:45.608Z,24.39
2018-07-07T07:16:46.409Z,24.42
2018-07-07T07:17:47.148Z,24.45
2018-07-07T07:18:48.164Z,24.48
2018-07-07T07:19:53.954Z,24.51
2018-07-07T07:20:51.637Z,24.54
2018-07-07T07:21:56.711Z,24.57
2018-07-07T07:22:50.269Z,24.60
2018-07-07T07:24:32.898Z,24.63
2018-07-07T07:24:51.854Z,24.66
2018-07-07T07:25:56.314Z,24.69
2018-07-07T07:26:56.206Z,24.72
2018-07-07T07:27:54.974Z,24.75
2018-07-07T07:28:55.822Z,24.78
2018-07-07T07:30:01.566Z,24.81
2018-07-07T07:32:17.698Z,24.87
2018-07-07T07:33:06.792Z,24.90
2018-07-07T07:33:58.524Z,24.94
2018-07-07T07:37:43.124Z,25.62
2018-07-07T07:38:42.442Z,25.61
2018-07-07T07:39:52.341Z,25.62
2018-07-07T07:40:41.879Z,25.62
2018-07-07T07:41:49.661Z,25.63
2018-07-07T07:43:05.275Z,25.64
2018-07-07T07:45:02.129Z,25.66
2018-07-07T07:45:23.987Z,25.67
2018-07-07T07:45:54.751Z,25.69
2018-07-07T07:47:10.292Z,25.72
2018-07-07T07:47:49.715Z,25.74
2018-07-07T08:00:04.153Z,26.87
2018-07-07T08:01:00.478Z,26.88
2018-07-07T08:02:20.773Z,26.89
2018-07-07T08:03:13.343Z,26.93
2018-07-07T08:05:12.075Z,26.98
2018-07-07T08:06:12.530Z,27.04
2018-07-07T08:06:15.104Z,27.11
2018-07-07T08:12:44.024Z,29.55
2018-07-07T09:42:11.364Z,32.80
2018-07-07T10:06:38.489Z,30.50
2018-07-07T10:08:24.734Z,30.45
2018-07-07T10:22:04.597Z,30.87
2018-07-07T10:33:44.858Z,30.80
2018-07-07T10:38:50.628Z,30.23
2018-07-07T10:39:56.395Z,30.16
2018-07-07T10:45:31.683Z,30.16
2018-07-07T10:55:49.049Z,30.86
2018-07-07T10:57:02.322Z,30.85
2018-07-07T10:58:49.118Z,30.99
2018-07-07T10:59:51.910Z,30.98
2018-07-07T11:04:43.898Z,31.37
2018-07-07T11:06:45.643Z,31.37
2018-07-07T11:37:31.296Z,30.66
2018-07-07T11:38:31.148Z,30.64
2018-07-07T11:40:22.003Z,30.64
2018-07-07T11:53:30.525Z,30.08
2018-07-07T11:53:43.243Z,30.06
2018-07-07T11:59:45.560Z,30.35
2018-07-07T12:01:31.489Z,30.34
2018-07-07T12:35:01.687Z,33.36
2018-07-07T12:48:03.407Z,30.45
2018-07-07T12:55:00.971Z,30.11
2018-07-07T13:01:26.526Z,29.95
2018-07-07T13:07:21.899Z,29.95
2018-07-07T13:22:21.964Z,29.67
2018-07-07T13:23:51.367Z,29.67
2018-07-07T13:29:56.516Z,29.56
2018-07-07T13:44:41.658Z,29.34
2018-07-07T15:58:35.401Z,28.83
2018-07-07T16:36:24.422Z,29.21
2018-07-07T21:30:58.929Z,24.80
2018-07-07T21:52:35.605Z,24.43
2018-07-07T21:53:37.964Z,24.41
2018-07-07T21:55:02.938Z,24.41
2018-07-07T21:56:37.732Z,24.39
2018-07-07T21:57:41.762Z,24.38
2018-07-07T21:58:18.565Z,24.40
2018-07-07T22:50:49.720Z,23.90
2018-07-07T22:51:23.134Z,23.88
2018-07-07T23:00:29.677Z,23.71
